Time;durP1;ratioP1;P1;durP2;ratioP2;P2;SDS_P1;SDS_P2;PMS_P1;PMS_P2;Temp;Humidity;BMP_temperature;BMP_pressure;BME280_temperature;BME280_humidity;BME280_pressure;Samples;Min_cycle;Max_cycle;Signal;HPM_P1;HPM_P2
2022/07/18 00:00:47;;;;;;;4.38;3.65;;;16.30;76.60;;;;;;2081599;28;20072;-78
2022/07/18 00:01:47;;;;;;;5.35;3.75;;;16.30;76.70;;;;;;2081922;28;20104;-78
2022/07/18 00:02:48;;;;;;;5.15;3.72;;;16.30;76.80;;;;;;2082141;28;20103;-78
2022/07/18 00:03:49;;;;;;;7.15;4.35;;;16.30;76.90;;;;;;2073208;28;20033;-78
2022/07/18 00:04:50;;;;;;;9.38;7.00;;;16.20;77.00;;;;;;2073738;28;20034;-78
2022/07/18 00:05:51;;;;;;;7.93;6.00;;;16.20;77.00;;;;;;2081958;28;20124;-79
2022/07/18 00:06:52;;;;;;;7.50;5.10;;;16.20;77.80;;;;;;2082532;28;20037;-77
2022/07/18 00:07:53;;;;;;;7.70;4.63;;;16.20;77.00;;;;;;2073726;28;20116;-78
2022/07/18 00:08:54;;;;;;;6.45;4.25;;;16.20;77.00;;;;;;2073271;28;20025;-79
2022/07/18 00:09:55;;;;;;;5.10;3.90;;;16.20;77.00;;;;;;2081192;28;20411;-76
2022/07/18 00:10:55;;;;;;;6.05;3.70;;;16.20;77.20;;;;;;2081210;28;20036;-76
2022/07/18 00:11:56;;;;;;;4.95;3.42;;;16.20;77.20;;;;;;2080877;28;20568;-77
2022/07/18 00:12:57;;;;;;;5.38;3.40;;;16.20;77.30;;;;;;2080103;28;20056;-77
2022/07/18 00:13:57;;;;;;;4.55;3.70;;;16.10;77.20;;;;;;2081222;28;20036;-77
2022/07/18 00:14:58;;;;;;;5.00;3.30;;;16.10;77.20;;;;;;2081312;28;20109;-77
2022/07/18 00:15:59;;;;;;;8.43;3.47;;;16.10;77.30;;;;;;2081365;28;20151;-77
2022/07/18 00:17:00;;;;;;;4.93;3.40;;;16.10;77.30;;;;;;2080938;28;20041;-78
2022/07/18 00:18:01;;;;;;;6.97;3.35;;;16.10;77.50;;;;;;2072641;28;20037;-77
2022/07/18 00:19:02;;;;;;;4.07;3.30;;;16.10;77.50;;;;;;2072897;28;20767;-77
2022/07/18 00:20:07;;;;;;;4.50;3.10;;;16.10;77.60;;;;;;2072982;28;20065;-78
2022/07/18 00:21:08;;;;;;;5.40;3.50;;;16.10;77.60;;;;;;2082252;28;20122;-77
2022/07/18 00:22:09;;;;;;;3.95;3.15;;;16.10;77.70;;;;;;2073814;28;20072;-76
2022/07/18 00:23:09;;;;;;;6.60;3.22;;;16.10;77.70;;;;;;2073484;28;20109;-76
2022/07/18 00:24:10;;;;;;;4.20;3.10;;;16.10;77.60;;;;;;2082669;28;20025;-77
2022/07/18 00:25:11;;;;;;;5.05;3.03;;;16.10;77.60;;;;;;2083203;28;20061;-77
2022/07/18 00:26:12;;;;;;;8.80;2.92;;;16.10;77.40;;;;;;2082915;28;20524;-77
2022/07/18 00:27:12;;;;;;;5.07;3.10;;;16.10;77.40;;;;;;2081726;28;20027;-77
2022/07/18 00:28:13;;;;;;;4.72;2.78;;;16.10;77.40;;;;;;2082025;28;20530;-77
2022/07/18 00:29:14;;;;;;;5.60;3.00;;;16.10;77.40;;;;;;2074072;28;20054;-77
2022/07/18 00:30:15;;;;;;;4.43;3.25;;;16.10;77.40;;;;;;2074120;28;20026;-77
2022/07/18 00:31:16;;;;;;;5.60;2.70;;;16.00;77.40;;;;;;2065243;28;20054;-77
2022/07/18 00:32:16;;;;;;;4.43;2.80;;;16.00;77.30;;;;;;2064776;28;20022;-78
2022/07/18 00:33:17;;;;;;;5.35;2.70;;;16.00;77.10;;;;;;2082166;28;20028;-77
2022/07/18 00:34:18;;;;;;;5.95;2.90;;;16.00;77.20;;;;;;2082493;28;20026;-77
2022/07/18 00:35:18;;;;;;;4.18;3.00;;;16.00;77.20;;;;;;2073125;28;20029;-77
2022/07/18 00:36:19;;;;;;;4.40;2.97;;;16.00;77.40;;;;;;2073076;28;20041;-77
2022/07/18 00:37:20;;;;;;;6.85;2.78;;;16.00;77.30;;;;;;2072880;28;20053;-77
2022/07/18 00:38:21;;;;;;;5.60;2.90;;;15.90;77.30;;;;;;2073470;28;20030;-77
2022/07/18 00:39:21;;;;;;;3.92;3.00;;;15.90;77.40;;;;;;2073043;28;20041;-77
2022/07/18 00:40:22;;;;;;;4.82;3.00;;;15.90;77.50;;;;;;2064878;28;20018;-77
2022/07/18 00:41:23;;;;;;;4.85;2.78;;;15.90;77.30;;;;;;2073483;28;20448;-77
2022/07/18 00:42:24;;;;;;;5.15;2.75;;;15.90;77.30;;;;;;2083044;28;20167;-78
2022/07/18 00:43:25;;;;;;;3.75;2.65;;;15.90;77.30;;;;;;2074358;28;20042;-75
2022/07/18 00:44:30;;;;;;;5.70;2.72;;;15.90;77.30;;;;;;2073878;28;20427;-75
2022/07/18 00:45:31;;;;;;;4.28;2.55;;;15.90;77.30;;;;;;2082538;28;20026;-75
2022/07/18 00:46:31;;;;;;;3.85;2.70;;;15.90;77.30;;;;;;2082085;28;20022;-76
2022/07/18 00:47:32;;;;;;;3.55;2.55;;;15.90;77.50;;;;;;2082289;28;20071;-76
2022/07/18 00:48:33;;;;;;;4.32;2.47;;;15.90;77.50;;;;;;2082274;28;20169;-77
2022/07/18 00:49:33;;;;;;;4.20;2.60;;;15.80;77.40;;;;;;2073714;28;20037;-76
2022/07/18 00:50:34;;;;;;;4.70;2.60;;;15.80;77.40;;;;;;2073754;28;20026;-76
2022/07/18 00:51:37;;;;;;;4.82;2.83;;;15.80;77.10;;;;;;2082445;28;20061;-76
2022/07/18 00:52:39;;;;;;;4.40;2.42;;;15.70;77.30;;;;;;2081966;28;20026;-76
2022/07/18 00:53:39;;;;;;;3.17;2.67;;;15.70;77.10;;;;;;2073060;28;20760;-76
2022/07/18 00:54:40;;;;;;;6.63;2.60;;;15.70;77.10;;;;;;2072933;28;20030;-77
2022/07/18 00:55:44;;;;;;;2.85;2.20;;;15.70;77.20;;;;;;2081310;28;20029;-77
2022/07/18 00:56:47;;;;;;;3.88;2.33;;;15.60;77.20;;;;;;2072446;28;20022;-76
2022/07/18 00:57:48;;;;;;;6.15;2.60;;;15.60;77.40;;;;;;2072339;28;20026;-77
2022/07/18 00:58:49;;;;;;;4.25;2.50;;;15.60;77.50;;;;;;2072828;28;20475;-78
2022/07/18 01:02:28;;;;;;;3.92;2.55;;;15.50;77.80;;;;;;2081288;28;20045;-77
2022/07/18 01:03:29;;;;;;;4.55;2.60;;;15.50;77.70;;;;;;2080992;28;20502;-77
2022/07/18 01:04:29;;;;;;;6.43;2.72;;;15.50;77.70;;;;;;2072638;28;20038;-77
2022/07/18 01:05:30;;;;;;;5.18;2.67;;;15.50;77.90;;;;;;2064271;28;20031;-76
2022/07/18 01:06:31;;;;;;;3.72;2.40;;;15.50;78.20;;;;;;2072160;28;20068;-77
2022/07/18 01:07:32;;;;;;;3.83;2.30;;;15.50;78.20;;;;;;2072654;28;20037;-76
2022/07/18 01:08:33;;;;;;;4.10;2.53;;;15.50;78.50;;;;;;2072145;28;20025;-76
2022/07/18 01:09:33;;;;;;;6.30;2.80;;;15.40;78.50;;;;;;2080956;28;20064;-76
2022/07/18 01:10:34;;;;;;;5.65;3.30;;;15.40;78.70;;;;;;2080932;28;20021;-76
2022/07/18 01:11:35;;;;;;;6.63;2.60;;;15.40;78.80;;;;;;2072047;28;20017;-76
2022/07/18 01:12:36;;;;;;;4.45;2.70;;;15.40;79.00;;;;;;2071956;28;20038;-76
2022/07/18 01:13:37;;;;;;;4.30;2.70;;;15.30;79.30;;;;;;2072282;28;20084;-76
2022/07/18 01:14:38;;;;;;;4.20;2.53;;;15.30;79.50;;;;;;2072111;28;20117;-76
2022/07/18 01:15:39;;;;;;;5.45;2.63;;;15.30;79.60;;;;;;2080843;28;20504;-76
2022/07/18 01:16:40;;;;;;;5.13;2.63;;;15.30;79.70;;;;;;2071870;28;20479;-76
2022/07/18 01:17:41;;;;;;;3.58;2.53;;;15.30;79.90;;;;;;2071771;28;20128;-76
2022/07/18 01:18:49;;;;;;;3.72;2.67;;;15.30;80.00;;;;;;2080541;28;20028;-76
2022/07/18 01:19:50;;;;;;;3.80;2.55;;;15.30;80.10;;;;;;2080758;28;20032;-77
2022/07/18 01:20:51;;;;;;;3.58;2.40;;;15.20;80.20;;;;;;2080589;28;20028;-77
2022/07/18 01:21:52;;;;;;;4.30;2.47;;;15.20;80.30;;;;;;2071745;28;20029;-77
2022/07/18 01:22:52;;;;;;;5.80;2.70;;;15.20;80.40;;;;;;2071754;28;20542;-76
2022/07/18 01:23:53;;;;;;;4.18;2.70;;;15.20;80.60;;;;;;2080285;28;20017;-76
2022/07/18 01:24:54;;;;;;;3.83;2.70;;;15.20;80.70;;;;;;2080035;28;20040;-76
2022/07/18 01:25:54;;;;;;;3.83;2.35;;;15.20;80.70;;;;;;2080617;28;20040;-76
2022/07/18 01:26:55;;;;;;;4.88;2.70;;;15.20;80.70;;;;;;2071714;28;20025;-76
2022/07/18 01:27:56;;;;;;;4.22;2.60;;;15.20;80.70;;;;;;2071701;28;20528;-76
2022/07/18 01:28:57;;;;;;;5.18;2.90;;;15.20;80.70;;;;;;2071442;28;20089;-77
2022/07/18 01:29:58;;;;;;;4.65;2.72;;;15.20;81.00;;;;;;2072074;28;20034;-76
2022/07/18 01:30:58;;;;;;;3.92;2.75;;;15.20;81.20;;;;;;2079916;28;20040;-76
2022/07/18 01:32:06;;;;;;;4.15;2.67;;;15.20;81.40;;;;;;2079964;28;20037;-77
2022/07/18 01:33:07;;;;;;;4.00;2.70;;;15.20;81.10;;;;;;2071601;28;20135;-76
2022/07/18 01:34:08;;;;;;;4.50;2.80;;;15.20;81.00;;;;;;2071837;28;20030;-77
2022/07/18 01:35:09;;;;;;;3.88;2.70;;;15.20;81.10;;;;;;2080442;28;20045;-77
2022/07/18 01:36:10;;;;;;;5.60;3.00;;;15.20;81.10;;;;;;2080624;28;20474;-77
2022/07/18 01:37:11;;;;;;;5.07;2.72;;;15.10;81.20;;;;;;2080118;28;20122;-77
2022/07/18 01:38:12;;;;;;;5.68;3.25;;;15.10;81.20;;;;;;2071901;28;20079;-75
2022/07/18 01:39:13;;;;;;;4.65;3.10;;;15.10;81.10;;;;;;2071951;28;20022;-76
2022/07/18 01:40:14;;;;;;;6.18;2.95;;;15.10;81.20;;;;;;2081200;28;20479;-76
2022/07/18 01:41:14;;;;;;;4.65;3.13;;;15.10;81.30;;;;;;2081290;28;20037;-76
2022/07/18 01:42:15;;;;;;;7.00;3.05;;;15.10;81.30;;;;;;2081633;28;20033;-77
2022/07/18 01:43:16;;;;;;;4.85;3.13;;;15.10;81.30;;;;;;2082152;28;20017;-77
2022/07/18 01:44:16;;;;;;;3.97;2.95;;;15.10;81.20;;;;;;2084888;28;20510;-77
2022/07/18 01:45:18;;;;;;;6.25;3.13;;;15.00;81.30;;;;;;2086615;28;20036;-76
2022/07/18 01:46:19;;;;;;;5.07;2.90;;;15.00;81.30;;;;;;2084831;28;20037;-76
2022/07/18 01:47:19;;;;;;;4.10;2.90;;;15.00;81.30;;;;;;2075845;28;20034;-77
2022/07/18 01:48:22;;;;;;;7.25;3.10;;;15.00;81.30;;;;;;2077141;28;20026;-76
2022/07/18 01:49:24;;;;;;;4.00;2.90;;;15.00;81.70;;;;;;2088721;28;20029;-76
2022/07/18 01:50:24;;;;;;;4.07;2.67;;;15.00;81.80;;;;;;2088928;28;20022;-76
2022/07/18 01:51:25;;;;;;;5.75;3.00;;;15.00;81.80;;;;;;2081237;28;20029;-76
2022/07/18 01:52:26;;;;;;;3.90;2.60;;;15.00;81.90;;;;;;2081206;28;20041;-75
2022/07/18 01:53:27;;;;;;;4.90;3.05;;;15.00;82.00;;;;;;2080556;28;20030;-77
2022/07/18 01:54:33;;;;;;;3.72;3.00;;;15.00;82.20;;;;;;2079906;28;20113;-75
2022/07/18 01:55:33;;;;;;;4.88;3.10;;;15.00;82.20;;;;;;2088472;28;20018;-76
2022/07/18 01:56:34;;;;;;;5.68;2.90;;;15.00;82.20;;;;;;2089381;28;20120;-76
2022/07/18 01:57:35;;;;;;;4.03;2.92;;;15.00;82.20;;;;;;2089692;28;20068;-76
2022/07/18 01:58:36;;;;;;;5.18;3.30;;;14.90;82.10;;;;;;2081597;28;20073;-75
2022/07/18 01:59:37;;;;;;;6.35;3.10;;;15.00;82.40;;;;;;2081114;28;20026;-76
2022/07/18 02:00:37;;;;;;;4.30;3.17;;;14.90;82.50;;;;;;2088423;28;20033;-75
2022/07/18 02:01:38;;;;;;;5.55;3.08;;;14.90;82.60;;;;;;2078163;28;20058;-76
2022/07/18 02:02:39;;;;;;;4.75;3.10;;;14.90;82.70;;;;;;2078222;28;20056;-75
2022/07/18 02:03:40;;;;;;;4.60;3.33;;;14.90;82.90;;;;;;2077935;28;20018;-76
2022/07/18 02:05:00;;;;;;;6.07;3.25;;;14.90;83.00;;;;;;2078073;28;20080;-77
2022/07/18 02:06:01;;;;;;;5.60;3.30;;;14.90;83.00;;;;;;2086074;28;20030;-75
2022/07/18 02:07:01;;;;;;;5.20;3.20;;;14.80;83.10;;;;;;2085641;28;20026;-77
2022/07/18 02:08:02;;;;;;;4.95;3.17;;;14.80;83.20;;;;;;2085228;28;20037;-78
2022/07/18 02:09:04;;;;;;;6.38;3.70;;;14.80;83.20;;;;;;2085218;28;20079;-76
2022/07/18 02:10:17;;;;;;;5.30;3.35;;;14.80;83.40;;;;;;2074543;28;20033;-76
2022/07/18 02:11:18;;;;;;;4.60;3.40;;;14.80;83.50;;;;;;2066380;28;20449;-76
2022/07/18 02:12:19;;;;;;;5.35;3.28;;;14.80;83.60;;;;;;2072617;28;20265;-76
2022/07/18 02:13:20;;;;;;;6.22;4.15;;;14.80;83.70;;;;;;2071942;28;20096;-76
2022/07/18 02:14:21;;;;;;;5.32;3.88;;;14.80;83.70;;;;;;2072169;28;20022;-77
2022/07/18 02:15:21;;;;;;;5.30;3.88;;;14.70;83.70;;;;;;2080979;28;20037;-77
2022/07/18 02:16:22;;;;;;;4.90;3.92;;;14.70;83.80;;;;;;2080633;28;20056;-77
2022/07/18 02:17:23;;;;;;;5.88;4.00;;;14.70;83.80;;;;;;2080161;28;20045;-78
2022/07/18 02:18:23;;;;;;;6.00;3.92;;;14.70;84.00;;;;;;2072059;28;20037;-78
2022/07/18 02:19:24;;;;;;;7.15;4.18;;;14.70;84.00;;;;;;2072042;28;20022;-77
2022/07/18 02:20:25;;;;;;;5.07;3.50;;;14.70;84.10;;;;;;2071697;28;20508;-77
2022/07/18 02:21:26;;;;;;;7.28;3.90;;;14.70;84.20;;;;;;2071808;28;20101;-77
2022/07/18 02:22:26;;;;;;;5.60;3.50;;;14.60;84.20;;;;;;2071976;28;20068;-77
2022/07/18 02:23:27;;;;;;;6.05;3.50;;;14.60;84.30;;;;;;2071446;28;20033;-76
2022/07/18 02:24:28;;;;;;;4.93;3.30;;;14.60;84.60;;;;;;2063385;28;20449;-78
2022/07/18 02:25:29;;;;;;;5.78;3.50;;;14.60;84.70;;;;;;2063329;28;20030;-78
2022/07/18 02:26:30;;;;;;;6.85;3.45;;;14.60;84.90;;;;;;2080248;28;20240;-78
2022/07/18 02:27:31;;;;;;;6.07;3.28;;;14.60;84.90;;;;;;2080445;28;20040;-77
2022/07/18 02:28:33;;;;;;;5.78;3.10;;;14.50;84.90;;;;;;2071629;28;20488;-78
2022/07/18 02:29:34;;;;;;;4.60;3.10;;;14.50;85.00;;;;;;2071718;28;20042;-77
2022/07/18 02:30:34;;;;;;;5.47;3.20;;;14.50;85.10;;;;;;2071849;28;20057;-78
2022/07/18 02:31:35;;;;;;;5.25;3.13;;;14.60;85.30;;;;;;2071538;28;20200;-76
2022/07/18 02:32:37;;;;;;;4.85;3.30;;;14.50;85.30;;;;;;2080763;28;20032;-76
2022/07/18 02:33:37;;;;;;;9.00;3.65;;;14.50;85.30;;;;;;2080728;28;20021;-76
2022/07/18 02:34:38;;;;;;;11.70;4.07;;;14.50;85.50;;;;;;2080455;28;20108;-75
2022/07/18 02:35:39;;;;;;;6.13;3.90;;;14.50;85.60;;;;;;2080090;28;20420;-76
2022/07/18 02:36:41;;;;;;;7.85;4.35;;;14.50;85.80;;;;;;2071333;28;20423;-76
2022/07/18 02:37:41;;;;;;;8.10;4.25;;;14.50;85.80;;;;;;2071811;28;20040;-76
2022/07/18 02:38:42;;;;;;;6.88;4.55;;;14.50;85.80;;;;;;2071573;28;20053;-77
2022/07/18 02:39:43;;;;;;;8.90;5.10;;;14.50;85.90;;;;;;2071554;28;20148;-75
2022/07/18 02:40:43;;;;;;;6.25;4.75;;;14.40;85.80;;;;;;2080150;28;20021;-76
2022/07/18 02:41:44;;;;;;;9.48;5.85;;;14.40;85.90;;;;;;2080202;28;20498;-77
2022/07/18 02:42:45;;;;;;;9.32;5.40;;;14.40;85.90;;;;;;2079964;28;20365;-77
2022/07/18 02:43:46;;;;;;;7.05;5.55;;;14.40;86.10;;;;;;2071485;28;20060;-76
2022/07/18 02:44:46;;;;;;;9.02;5.65;;;14.40;86.20;;;;;;2063230;28;20033;-76
2022/07/18 02:45:47;;;;;;;9.38;5.65;;;14.30;86.20;;;;;;2071292;28;20511;-76
2022/07/18 02:46:48;;;;;;;7.18;5.20;;;14.30;86.40;;;;;;2071248;28;20037;-77
2022/07/18 02:47:48;;;;;;;8.18;5.35;;;14.40;86.70;;;;;;2071526;28;20032;-76
2022/07/18 02:48:49;;;;;;;7.75;5.07;;;14.30;86.70;;;;;;2080031;28;20041;-76
2022/07/18 02:49:49;;;;;;;9.23;5.35;;;14.30;87.00;;;;;;2080448;28;20112;-77
2022/07/18 02:50:50;;;;;;;7.40;5.00;;;14.30;87.80;;;;;;2079779;28;20085;-76
2022/07/18 02:51:51;;;;;;;6.47;4.60;;;14.30;87.30;;;;;;2079467;28;20025;-76
2022/07/18 02:52:51;;;;;;;6.53;4.30;;;14.30;87.50;;;;;;2080243;28;20111;-76
2022/07/18 02:53:52;;;;;;;5.90;3.85;;;14.30;87.80;;;;;;2080073;28;20079;-76
2022/07/18 02:54:53;;;;;;;5.10;4.03;;;14.30;88.00;;;;;;2079915;28;20033;-76
2022/07/18 02:55:53;;;;;;;7.15;4.10;;;14.30;88.30;;;;;;2080090;28;20293;-76
2022/07/18 02:56:54;;;;;;;5.38;3.90;;;14.20;88.40;;;;;;2080141;28;20037;-76
2022/07/18 02:57:55;;;;;;;6.68;3.85;;;14.20;88.50;;;;;;2080490;28;20044;-76
2022/07/18 02:58:56;;;;;;;6.85;3.72;;;14.20;88.60;;;;;;2079637;28;20137;-77
2022/07/18 02:59:56;;;;;;;5.90;3.97;;;14.20;88.90;;;;;;2079307;28;20021;-76
2022/07/18 03:00:57;;;;;;;8.73;3.85;;;14.10;89.10;;;;;;2080117;28;20037;-75
2022/07/18 03:01:58;;;;;;;5.53;3.65;;;14.10;89.40;;;;;;2080162;28;20052;-75
2022/07/18 03:02:58;;;;;;;6.70;3.90;;;14.10;89.60;;;;;;2079872;28;20476;-75
2022/07/18 03:04:00;;;;;;;5.38;3.88;;;14.10;89.70;;;;;;2079306;28;20021;-76
2022/07/18 03:05:01;;;;;;;5.40;3.92;;;14.10;89.80;;;;;;2079292;28;20415;-76
2022/07/18 03:06:02;;;;;;;6.55;4.10;;;14.00;90.00;;;;;;2080034;28;20033;-76
2022/07/18 03:07:03;;;;;;;5.70;4.30;;;14.00;90.00;;;;;;2079729;28;20029;-76
2022/07/18 03:08:03;;;;;;;5.22;4.10;;;14.00;90.10;;;;;;2071501;28;20034;-75
2022/07/18 03:09:04;;;;;;;6.40;4.07;;;14.00;90.20;;;;;;2071408;28;20084;-77
2022/07/18 03:10:06;;;;;;;6.22;3.97;;;14.00;90.30;;;;;;2080114;28;20030;-76
2022/07/18 03:11:07;;;;;;;6.63;4.40;;;14.00;90.30;;;;;;2071291;28;20046;-76
2022/07/18 03:12:08;;;;;;;6.40;4.00;;;14.00;90.40;;;;;;2071243;28;20038;-75
2022/07/18 03:13:10;;;;;;;6.63;4.20;;;14.00;90.50;;;;;;2078950;28;20432;-75
2022/07/18 03:14:11;;;;;;;5.43;4.35;;;14.00;90.60;;;;;;2079436;28;20554;-77
2022/07/18 03:15:12;;;;;;;7.18;4.45;;;13.90;90.60;;;;;;2070890;28;20121;-77
2022/07/18 03:16:12;;;;;;;5.63;4.05;;;13.90;90.70;;;;;;2070950;28;20034;-76
2022/07/18 03:17:13;;;;;;;6.65;4.50;;;13.90;90.80;;;;;;2070789;28;20030;-76
2022/07/18 03:18:14;;;;;;;6.25;4.40;;;13.90;90.90;;;;;;2070769;28;20105;-77
2022/07/18 03:19:14;;;;;;;7.50;4.57;;;13.90;91.00;;;;;;2079721;28;20097;-76
2022/07/18 03:20:15;;;;;;;6.72;4.60;;;13.90;91.10;;;;;;2079599;28;20388;-76
2022/07/18 03:21:16;;;;;;;6.35;4.40;;;13.90;91.10;;;;;;2070825;28;20042;-76
2022/07/18 03:22:17;;;;;;;6.22;4.47;;;13.90;91.10;;;;;;2070765;28;20030;-76
2022/07/18 03:23:17;;;;;;;8.07;5.10;;;13.90;91.20;;;;;;2079643;28;20029;-77
2022/07/18 03:24:18;;;;;;;7.70;4.80;;;13.90;91.30;;;;;;2079639;28;20022;-77
2022/07/18 03:25:18;;;;;;;7.50;4.93;;;13.90;91.50;;;;;;2079797;28;20025;-76
2022/07/18 03:26:19;;;;;;;6.82;4.85;;;13.90;91.40;;;;;;2079882;28;20079;-79
2022/07/18 03:27:20;;;;;;;6.45;4.75;;;13.90;91.50;;;;;;2079337;28;20030;-77
2022/07/18 03:28:21;;;;;;;7.47;4.97;;;13.90;91.50;;;;;;2079332;28;20029;-77
2022/07/18 03:29:22;;;;;;;8.65;5.18;;;13.90;91.50;;;;;;2079599;28;20392;-77
2022/07/18 03:30:22;;;;;;;8.13;5.07;;;13.90;91.50;;;;;;2079654;28;20116;-77
2022/07/18 03:31:23;;;;;;;6.95;5.38;;;13.90;91.50;;;;;;2079681;28;20022;-77
2022/07/18 03:32:24;;;;;;;9.15;5.50;;;13.90;91.60;;;;;;2070897;28;20463;-76
2022/07/18 03:33:26;;;;;;;7.55;5.55;;;13.90;91.60;;;;;;2070854;28;20025;-77
2022/07/18 03:34:26;;;;;;;9.48;6.13;;;13.90;91.70;;;;;;2079841;28;20010;-77
2022/07/18 03:35:27;;;;;;;7.93;5.75;;;13.90;91.70;;;;;;2070846;28;20527;-77
2022/07/18 03:36:28;;;;;;;8.05;5.60;;;13.90;91.70;;;;;;2070957;28;20030;-77
2022/07/18 03:37:29;;;;;;;7.72;5.55;;;14.00;91.70;;;;;;2079721;28;20021;-77
2022/07/18 03:38:29;;;;;;;7.05;5.53;;;13.90;91.70;;;;;;2079638;28;20075;-77
2022/07/18 03:39:30;;;;;;;7.57;5.68;;;13.90;91.80;;;;;;2070755;28;20695;-77
2022/07/18 03:40:31;;;;;;;8.70;5.80;;;14.00;91.80;;;;;;2071879;28;20053;-77
2022/07/18 03:41:32;;;;;;;7.45;5.35;;;13.90;91.80;;;;;;2080090;28;20483;-77
2022/07/18 03:42:34;;;;;;;8.93;5.30;;;13.90;91.70;;;;;;2079866;28;20073;-76
2022/07/18 03:43:35;;;;;;;6.82;5.10;;;13.90;91.70;;;;;;2079866;28;20033;-77
2022/07/18 03:44:36;;;;;;;7.78;5.03;;;14.00;91.70;;;;;;2071005;28;20014;-76
2022/07/18 03:45:36;;;;;;;7.53;4.95;;;14.00;91.60;;;;;;2070969;28;20502;-76
2022/07/18 03:46:37;;;;;;;6.35;4.80;;;14.00;91.60;;;;;;2079583;28;20029;-76
2022/07/18 03:47:38;;;;;;;6.50;4.97;;;14.10;91.60;;;;;;2080098;28;20446;-76
2022/07/18 03:48:38;;;;;;;7.15;4.70;;;14.10;91.90;;;;;;2072085;28;20397;-75
2022/07/18 03:49:39;;;;;;;8.25;4.95;;;14.10;91.40;;;;;;2072415;28;20030;-76
2022/07/18 03:50:40;;;;;;;7.90;4.93;;;14.20;91.40;;;;;;2080229;28;20040;-75
2022/07/18 03:51:40;;;;;;;7.95;4.50;;;14.20;91.30;;;;;;2080362;28;20510;-76
2022/07/18 03:52:41;;;;;;;8.63;5.13;;;14.20;91.40;;;;;;2081025;28;20057;-76
2022/07/18 03:53:42;;;;;;;9.10;5.10;;;14.20;91.30;;;;;;2080942;28;20132;-76
2022/07/18 03:54:42;;;;;;;8.35;4.70;;;14.30;91.30;;;;;;2081258;28;20034;-76
2022/07/18 03:55:43;;;;;;;8.48;5.13;;;14.20;91.20;;;;;;2080562;28;20511;-76
2022/07/18 03:56:44;;;;;;;8.48;5.07;;;14.30;91.20;;;;;;2072332;28;20018;-76
2022/07/18 03:57:44;;;;;;;7.13;4.90;;;14.30;91.20;;;;;;2072302;28;20033;-76
2022/07/18 03:58:45;;;;;;;9.30;5.13;;;14.30;91.20;;;;;;2080377;28;20083;-76
2022/07/18 03:59:46;;;;;;;6.30;4.47;;;14.30;91.10;;;;;;2080441;28;20035;-77
2022/07/18 04:00:46;;;;;;;6.60;4.70;;;14.30;91.10;;;;;;2081005;28;20025;-75
2022/07/18 04:01:47;;;;;;;7.18;4.53;;;14.40;91.10;;;;;;2081358;28;20112;-75
2022/07/18 04:02:48;;;;;;;8.02;4.40;;;14.40;90.90;;;;;;2081019;28;20108;-73
2022/07/18 04:03:49;;;;;;;6.20;4.10;;;14.40;90.90;;;;;;2080598;28;20088;-73
2022/07/18 04:04:49;;;;;;;5.75;4.30;;;14.40;90.80;;;;;;2080755;28;20042;-74
2022/07/18 04:05:50;;;;;;;7.50;4.53;;;14.50;90.80;;;;;;2080765;28;20029;-74
2022/07/18 04:06:51;;;;;;;5.55;4.05;;;14.50;90.70;;;;;;2080631;28;20080;-75
2022/07/18 04:07:51;;;;;;;6.43;4.70;;;14.50;90.70;;;;;;2081211;28;20056;-75
2022/07/18 04:08:52;;;;;;;6.43;4.80;;;14.50;90.70;;;;;;2081221;28;20033;-75
2022/07/18 04:09:52;;;;;;;7.50;5.07;;;14.50;90.80;;;;;;2081484;28;20029;-74
2022/07/18 04:10:53;;;;;;;10.55;5.75;;;14.60;90.80;;;;;;2081528;28;20744;-74
2022/07/18 04:11:54;;;;;;;9.30;6.40;;;14.60;90.80;;;;;;2081326;28;20029;-74
2022/07/18 04:12:55;;;;;;;9.73;6.90;;;14.60;90.70;;;;;;2081446;28;20029;-74
2022/07/18 04:13:56;;;;;;;9.35;7.03;;;14.60;90.90;;;;;;2081015;28;20464;-75
2022/07/18 04:14:57;;;;;;;10.27;7.50;;;14.60;91.00;;;;;;2080174;28;20601;-75
2022/07/18 04:15:58;;;;;;;13.07;8.30;;;14.70;90.90;;;;;;2080352;28;20104;-75
2022/07/18 04:16:58;;;;;;;12.98;9.35;;;14.80;90.80;;;;;;2080623;28;20045;-74
2022/07/18 04:17:59;;;;;;;10.98;8.73;;;15.00;91.00;;;;;;2080930;28;20036;-75
2022/07/18 04:19:00;;;;;;;12.18;8.57;;;15.30;90.40;;;;;;2080835;28;20136;-75
2022/07/18 04:20:01;;;;;;;10.75;7.97;;;15.60;89.70;;;;;;2080886;28;20109;-76
2022/07/18 04:21:01;;;;;;;10.60;7.53;;;16.00;88.00;;;;;;2080813;28;20021;-76
2022/07/18 04:22:02;;;;;;;11.23;8.15;;;16.50;86.10;;;;;;2080880;28;20440;-75
2022/07/18 04:23:06;;;;;;;10.05;7.47;;;16.90;84.30;;;;;;2080642;28;20527;-75
2022/07/18 04:24:07;;;;;;;12.05;7.53;;;17.30;82.40;;;;;;2080849;28;20033;-76
2022/07/18 04:25:07;;;;;;;12.55;7.75;;;17.70;80.70;;;;;;2080816;28;20615;-76
2022/07/18 04:26:09;;;;;;;12.07;7.18;;;18.00;79.10;;;;;;2080876;28;20034;-76
2022/07/18 04:27:09;;;;;;;8.60;6.15;;;18.20;77.40;;;;;;2080720;28;20032;-74
2022/07/18 04:28:12;;;;;;;7.50;5.57;;;18.50;76.10;;;;;;2080548;28;20487;-75
2022/07/18 04:29:12;;;;;;;7.38;5.35;;;18.70;74.40;;;;;;2071863;28;20069;-74
2022/07/18 04:30:15;;;;;;;10.15;5.00;;;18.90;73.60;;;;;;2072002;28;20029;-74
2022/07/18 04:31:16;;;;;;;6.70;4.82;;;19.10;72.50;;;;;;2080128;28;20041;-74
2022/07/18 04:32:16;;;;;;;8.13;4.78;;;19.40;71.70;;;;;;2080022;28;20101;-74
2022/07/18 04:33:17;;;;;;;7.85;4.70;;;19.60;71.00;;;;;;2071904;28;20487;-74
2022/07/18 04:34:18;;;;;;;5.93;4.10;;;19.70;69.90;;;;;;2072143;28;20038;-74
2022/07/18 04:35:19;;;;;;;7.68;4.18;;;19.70;69.20;;;;;;2080776;28;20068;-74
2022/07/18 04:36:20;;;;;;;6.03;4.25;;;19.80;68.60;;;;;;2080761;28;20490;-74
2022/07/18 04:37:20;;;;;;;6.03;4.00;;;20.00;68.10;;;;;;2071495;28;20064;-74
2022/07/18 04:38:21;;;;;;;6.30;4.05;;;20.20;67.60;;;;;;2063522;28;20464;-74
2022/07/18 04:39:22;;;;;;;7.35;4.07;;;20.40;66.90;;;;;;2071871;28;20072;-74
2022/07/18 04:40:23;;;;;;;8.70;3.95;;;20.50;66.30;;;;;;2071837;28;20072;-73
2022/07/18 04:41:24;;;;;;;6.22;3.90;;;20.60;66.30;;;;;;2071745;28;20440;-73
2022/07/18 04:42:25;;;;;;;8.15;4.28;;;20.70;65.00;;;;;;2080684;28;20029;-73
2022/07/18 04:43:26;;;;;;;8.52;4.30;;;20.90;64.20;;;;;;2080437;28;20480;-73
2022/07/18 04:44:26;;;;;;;6.63;4.38;;;21.00;63.40;;;;;;2080671;28;20664;-74
2022/07/18 04:45:27;;;;;;;6.85;4.28;;;21.00;63.10;;;;;;2080592;28;20030;-76
2022/07/18 04:46:28;;;;;;;8.02;4.50;;;21.00;62.60;;;;;;2080135;28;20524;-74
2022/07/18 04:47:29;;;;;;;6.28;4.10;;;20.90;62.00;;;;;;2080594;28;20048;-74
2022/07/18 04:48:30;;;;;;;7.50;4.57;;;21.00;62.30;;;;;;2080449;28;20017;-74
2022/07/18 04:49:30;;;;;;;7.85;4.35;;;21.10;62.20;;;;;;2079824;28;20017;-74
2022/07/18 04:50:32;;;;;;;7.05;4.20;;;21.30;61.80;;;;;;2080532;28;20399;-75
2022/07/18 04:51:33;;;;;;;7.82;4.10;;;21.50;61.30;;;;;;2080914;28;20028;-74
2022/07/18 04:52:41;;;;;;;9.60;4.00;;;21.60;60.90;;;;;;2080650;28;20047;-75
2022/07/18 04:53:42;;;;;;;8.20;4.28;;;21.60;61.00;;;;;;2071388;28;20079;-75
2022/07/18 04:54:42;;;;;;;8.60;3.75;;;21.80;60.50;;;;;;2071605;28;20103;-75
2022/07/18 04:55:43;;;;;;;7.90;4.13;;;21.90;60.00;;;;;;2080600;28;20025;-75
2022/07/18 04:56:44;;;;;;;4.93;3.78;;;22.00;59.90;;;;;;2080411;28;20029;-75
2022/07/18 04:57:45;;;;;;;6.97;4.03;;;22.00;59.90;;;;;;2080543;28;20115;-75
2022/07/18 04:58:45;;;;;;;5.90;3.40;;;22.10;59.70;;;;;;2080411;28;20052;-75
2022/07/18 04:59:46;;;;;;;6.35;3.75;;;22.20;59.60;;;;;;2071577;28;20104;-75
2022/07/18 05:00:47;;;;;;;7.38;3.53;;;22.10;59.30;;;;;;2071958;28;20060;-74
2022/07/18 05:01:47;;;;;;;5.07;3.60;;;22.10;59.40;;;;;;2080845;28;20029;-74
2022/07/18 05:02:50;;;;;;;6.47;3.67;;;22.20;59.40;;;;;;2072225;28;20034;-75
2022/07/18 05:03:50;;;;;;;4.75;3.40;;;22.30;59.40;;;;;;2072076;28;20037;-75
2022/07/18 05:04:51;;;;;;;7.82;3.65;;;22.30;59.40;;;;;;2080954;28;20059;-76
2022/07/18 05:05:52;;;;;;;5.95;3.70;;;22.50;59.20;;;;;;2081108;28;20025;-75
2022/07/18 05:06:53;;;;;;;6.50;3.85;;;22.50;58.90;;;;;;2080526;28;20034;-73
2022/07/18 05:07:54;;;;;;;6.65;4.68;;;22.60;58.70;;;;;;2080898;28;20029;-76
2022/07/18 05:08:54;;;;;;;7.70;4.40;;;22.60;58.00;;;;;;2080655;28;20060;-75
2022/07/18 05:09:55;;;;;;;6.53;4.30;;;22.60;57.80;;;;;;2081055;28;20055;-76
2022/07/18 05:10:56;;;;;;;9.00;4.50;;;22.60;57.60;;;;;;2080720;28;20029;-75
2022/07/18 05:11:56;;;;;;;7.15;4.40;;;22.80;57.70;;;;;;2080575;28;20278;-76
2022/07/18 05:12:57;;;;;;;6.65;4.43;;;22.90;57.20;;;;;;2071541;28;20132;-75
2022/07/18 05:13:58;;;;;;;8.10;4.35;;;23.00;57.00;;;;;;2063808;28;20098;-76
2022/07/18 05:14:58;;;;;;;7.90;4.82;;;23.00;56.80;;;;;;2071715;28;20037;-75
2022/07/18 05:15:59;;;;;;;6.90;4.63;;;23.10;56.70;;;;;;2080942;28;20438;-74
2022/07/18 05:17:00;;;;;;;6.85;4.72;;;23.20;56.60;;;;;;2073204;28;20030;-77
2022/07/18 05:18:01;;;;;;;8.90;5.20;;;23.30;57.00;;;;;;2056332;28;20584;-77
2022/07/18 05:19:01;;;;;;;6.93;4.85;;;23.30;55.80;;;;;;2064663;28;20033;-78
2022/07/18 05:20:04;;;;;;;11.60;4.78;;;23.40;55.50;;;;;;2081366;28;20034;-78